Time;durP1;ratioP1;P1;durP2;ratioP2;P2;SDS_P1;SDS_P2;PMS_P1;PMS_P2;Temp;Humidity;BMP_temperature;BMP_pressure;BME280_temperature;BME280_humidity;BME280_pressure;Samples;Min_cycle;Max_cycle;Signal;HPM_P1;HPM_P2
2022/08/01 00:01:56;;;;;;;13.25;10.68;;;;;;;20.32;87.74;101503.84;5092507;28;20040;-58
2022/08/01 00:04:24;;;;;;;11.90;10.68;;;;;;;20.36;88.07;101515.25;5092085;28;20123;-58
2022/08/01 00:06:49;;;;;;;12.70;10.68;;;;;;;20.34;88.86;101519.94;5093099;28;20032;-58
2022/08/01 00:09:14;;;;;;;15.98;11.40;;;;;;;20.46;88.12;101513.38;5092734;28;20028;-58
2022/08/01 00:11:41;;;;;;;13.50;11.45;;;;;;;20.40;88.49;101514.78;5091969;28;20038;-59
2022/08/01 00:14:09;;;;;;;14.43;11.07;;;;;;;20.38;88.12;101516.81;5091736;28;20043;-58
2022/08/01 00:16:34;;;;;;;17.73;11.50;;;;;;;20.38;87.71;101518.63;5094882;28;20082;-58
2022/08/01 00:19:02;;;;;;;16.58;12.05;;;;;;;20.27;88.07;101516.13;5091295;28;20487;-59
2022/08/01 00:21:27;;;;;;;16.77;11.60;;;;;;;20.35;88.01;101521.63;5093447;28;20024;-59
2022/08/01 00:23:53;;;;;;;16.33;11.57;;;;;;;20.24;88.55;101519.94;5093948;28;20487;-59
2022/08/01 00:26:19;;;;;;;20.05;12.50;;;;;;;20.23;88.73;101520.06;5091913;28;20039;-59
2022/08/01 00:28:44;;;;;;;15.07;12.60;;;;;;;20.27;89.08;101518.81;5093442;28;20066;-59
2022/08/01 00:31:10;;;;;;;15.02;11.98;;;;;;;20.21;88.57;101520.25;5092433;28;20039;-59
2022/08/01 00:33:37;;;;;;;17.58;12.40;;;;;;;20.22;88.39;101526.50;5091580;28;20463;-59
2022/08/01 00:36:03;;;;;;;20.27;12.48;;;;;;;20.21;88.29;101525.66;5092556;28;20470;-59
2022/08/01 00:38:31;;;;;;;14.55;12.43;;;;;;;20.23;88.49;101525.47;5074208;28;20093;-59
2022/08/01 00:40:56;;;;;;;19.33;13.82;;;;;;;20.18;88.77;101518.66;5092128;28;20036;-59
2022/08/01 00:43:24;;;;;;;19.95;13.05;;;;;;;20.14;89.64;101524.50;5091933;28;20504;-58
2022/08/01 00:45:50;;;;;;;20.95;13.52;;;;;;;20.09;89.40;101527.63;5092717;28;20131;-59
2022/08/01 00:48:16;;;;;;;22.88;14.85;;;;;;;20.08;90.02;101523.22;5093692;28;20119;-58
2022/08/01 00:50:41;;;;;;;19.80;15.48;;;;;;;20.18;90.13;101523.22;5074140;28;20394;-59
2022/08/01 00:53:07;;;;;;;17.95;13.95;;;;;;;20.02;90.27;101514.81;5092703;28;20089;-58
2022/08/01 00:55:32;;;;;;;22.00;15.10;;;;;;;20.03;89.62;101520.09;5091590;28;20020;-58
2022/08/01 00:57:58;;;;;;;22.17;15.90;;;;;;;20.00;90.21;101524.91;5090655;28;20085;-58
2022/08/01 01:00:24;;;;;;;25.13;15.38;;;;;;;20.00;89.71;101533.88;5093574;28;20020;-58
2022/08/01 01:02:49;;;;;;;27.60;15.77;;;;;;;19.95;90.92;101528.91;5091945;28;20059;-58
2022/08/01 01:05:15;;;;;;;19.50;15.75;;;;;;;20.00;90.61;101536.59;5089747;28;20055;-58
2022/08/01 01:08:03;;;;;;;26.88;17.00;;;;;;;20.05;90.16;101531.59;5090925;28;20479;-58
2022/08/01 01:10:46;;;;;;;22.98;17.17;;;;;;;19.96;90.54;101529.75;5088060;28;20505;-58
2022/08/01 01:13:18;;;;;;;23.45;16.58;;;;;;;19.97;91.21;101526.03;5106640;27;20103;-58
2022/08/01 01:15:51;;;;;;;29.00;17.48;;;;;;;20.00;91.08;101527.59;5091208;28;20055;-58
2022/08/01 01:18:16;;;;;;;24.90;17.50;;;;;;;19.96;91.90;101535.16;5091499;28;20099;-58
2022/08/01 01:20:56;;;;;;;31.85;17.92;;;;;;;20.08;91.59;101525.06;5091808;28;20103;-58
2022/08/01 01:23:45;;;;;;;26.42;18.65;;;;;;;20.10;91.08;101523.94;5092799;28;20030;-58
2022/08/01 01:26:23;;;;;;;22.75;18.33;;;;;;;20.04;92.44;101532.59;5059765;28;20126;-58
2022/08/01 01:29:05;;;;;;;20.77;16.67;;;;;;;20.06;91.74;101529.75;5090141;28;20032;-59
2022/08/01 01:31:37;;;;;;;24.65;17.83;;;;;;;20.12;91.74;101527.34;5090716;28;20028;-58
2022/08/01 01:34:05;;;;;;;23.30;17.80;;;;;;;20.04;92.16;101524.50;5093350;28;20099;-58
2022/08/01 01:36:32;;;;;;;24.40;17.77;;;;;;;20.00;91.87;101511.41;5091384;28;20455;-59
2022/08/01 01:39:02;;;;;;;25.40;17.90;;;;;;;20.00;91.23;101522.22;5092535;28;20035;-58
2022/08/01 01:41:30;;;;;;;28.35;18.15;;;;;;;20.06;91.50;101516.25;5088985;28;20027;-58
2022/08/01 01:43:57;;;;;;;20.52;16.70;;;;;;;20.05;90.37;101518.09;5089292;28;20107;-58
2022/08/01 01:46:26;;;;;;;28.48;16.60;;;;;;;20.08;90.11;101531.31;5093509;28;20437;-59
2022/08/01 01:48:55;;;;;;;21.05;15.75;;;;;;;20.07;90.31;101513.41;5090987;28;20024;-58
2022/08/01 01:51:23;;;;;;;25.50;15.70;;;;;;;20.09;91.11;101524.94;5091172;28;21036;-58
2022/08/01 01:53:51;;;;;;;22.58;16.13;;;;;;;20.03;90.54;101521.91;5091019;28;20032;-58
2022/08/01 01:56:20;;;;;;;20.65;14.75;;;;;;;20.04;90.53;101529.06;5091163;28;20467;-58
2022/08/01 01:58:50;;;;;;;17.45;14.80;;;;;;;20.05;90.46;101530.75;5092430;28;20039;-58
2022/08/01 02:01:18;;;;;;;19.88;14.75;;;;;;;20.04;90.08;101524.50;5092336;28;20548;-58
2022/08/01 02:03:44;;;;;;;18.02;14.18;;;;;;;20.01;90.85;101529.34;5090840;28;20048;-58
2022/08/01 02:06:14;;;;;;;20.42;15.85;;;;;;;19.95;90.45;101515.41;5094772;28;20062;-58
2022/08/01 02:08:41;;;;;;;23.10;15.90;;;;;;;19.91;89.87;101518.50;5091472;28;20015;-59
2022/08/01 02:11:19;;;;;;;17.98;14.55;;;;;;;19.97;90.42;101528.75;5090874;28;20467;-58
2022/08/01 02:14:08;;;;;;;19.38;15.00;;;;;;;20.04;89.78;101523.66;5089877;28;20081;-58
2022/08/01 02:16:35;;;;;;;21.63;14.93;;;;;;;19.96;90.37;101532.44;5090879;28;20047;-58
2022/08/01 02:19:01;;;;;;;18.20;15.48;;;;;;;20.02;90.03;101520.22;5090771;28;20028;-58
2022/08/01 02:21:32;;;;;;;23.58;16.00;;;;;;;20.08;90.34;101520.50;5090476;28;20095;-58
2022/08/01 02:24:05;;;;;;;24.45;15.48;;;;;;;20.07;90.30;101524.22;5089844;28;20057;-59
2022/08/01 02:26:32;;;;;;;21.13;16.58;;;;;;;20.08;89.90;101517.81;5091557;28;20062;-58
2022/08/01 02:29:08;;;;;;;21.83;14.70;;;;;;;20.09;90.13;101522.22;5090805;28;20107;-58
2022/08/01 02:31:38;;;;;;;22.85;15.32;;;;;;;20.07;89.56;101521.50;5091237;28;20024;-58
2022/08/01 02:34:09;;;;;;;20.15;15.25;;;;;;;20.04;90.00;101526.34;5092211;28;20084;-58
2022/08/01 02:36:36;;;;;;;18.15;14.70;;;;;;;20.08;89.26;101525.91;5094370;28;20106;-58
2022/08/01 02:39:08;;;;;;;18.60;14.90;;;;;;;20.04;90.19;101524.50;5095050;28;20046;-59
2022/08/01 02:41:40;;;;;;;23.98;15.73;;;;;;;19.99;90.90;101528.63;5097293;28;20478;-58
2022/08/01 02:44:09;;;;;;;18.75;15.65;;;;;;;19.92;90.77;101521.09;5093622;28;20103;-58
2022/08/01 02:46:40;;;;;;;19.25;15.48;;;;;;;19.96;90.51;101527.03;5093000;28;20088;-59
2022/08/01 02:49:08;;;;;;;24.27;15.57;;;;;;;19.93;90.85;101520.06;5098121;28;20024;-58
2022/08/01 02:51:36;;;;;;;21.77;15.60;;;;;;;19.93;90.63;101519.22;5112959;28;20019;-59
2022/08/01 02:54:04;;;;;;;19.65;15.15;;;;;;;19.99;91.10;101525.91;5100688;28;20106;-59
2022/08/01 02:56:35;;;;;;;21.98;16.38;;;;;;;19.94;91.51;101531.72;5095085;28;20016;-59
2022/08/01 02:59:07;;;;;;;20.88;15.90;;;;;;;19.96;90.87;101527.03;5095479;28;20475;-59
2022/08/01 03:01:39;;;;;;;19.73;14.85;;;;;;;20.01;90.48;101522.09;5095096;28;20024;-59
2022/08/01 03:04:05;;;;;;;19.23;14.95;;;;;;;19.98;90.29;101530.47;5094633;28;20028;-58
2022/08/01 03:06:32;;;;;;;22.80;15.80;;;;;;;19.98;90.76;101527.75;5093302;28;20024;-58
2022/08/01 03:09:00;;;;;;;22.65;15.57;;;;;;;19.98;91.60;101535.88;5094530;28;20470;-58
2022/08/01 03:11:28;;;;;;;20.00;15.70;;;;;;;19.97;90.61;101531.44;5094064;28;20103;-58
2022/08/01 03:13:54;;;;;;;21.05;15.82;;;;;;;19.94;90.04;101521.81;5094665;28;20026;-59
2022/08/01 03:16:23;;;;;;;23.45;16.98;;;;;;;20.02;90.98;101528.34;5093447;28;20024;-58
2022/08/01 03:18:51;;;;;;;22.52;16.40;;;;;;;19.92;90.53;101531.03;5094502;28;20135;-59
2022/08/01 03:21:21;;;;;;;21.30;16.42;;;;;;;19.87;91.06;101536.84;5095335;28;20024;-59
2022/08/01 03:23:49;;;;;;;21.05;16.17;;;;;;;19.90;90.90;101541.13;5093765;28;20024;-58
2022/08/01 03:26:15;;;;;;;25.08;17.35;;;;;;;19.88;91.31;101537.69;5094703;28;20430;-59
2022/08/01 03:28:44;;;;;;;19.20;16.48;;;;;;;19.81;90.68;101528.47;5095006;28;20036;-58
2022/08/01 03:31:14;;;;;;;24.10;18.38;;;;;;;19.80;91.05;101545.66;5094263;28;20106;-59
2022/08/01 03:33:40;;;;;;;24.13;16.77;;;;;;;19.83;91.08;101542.69;5094147;28;20493;-59
2022/08/01 03:36:09;;;;;;;21.95;17.75;;;;;;;19.84;91.56;101534.41;5092625;28;20020;-58
2022/08/01 03:38:39;;;;;;;24.35;17.95;;;;;;;19.91;91.36;101529.31;5095639;28;20563;-59
2022/08/01 03:41:20;;;;;;;26.58;18.23;;;;;;;19.85;90.83;101524.47;5094694;28;20035;-58
2022/08/01 03:43:58;;;;;;;26.65;18.92;;;;;;;19.87;91.00;101538.69;5091568;28;20039;-59
2022/08/01 03:46:34;;;;;;;24.40;18.58;;;;;;;19.83;91.30;101537.28;5090892;28;20024;-59
2022/08/01 03:49:06;;;;;;;26.08;18.70;;;;;;;19.83;91.59;101534.59;5099021;28;20024;-58
2022/08/01 03:51:32;;;;;;;22.63;17.73;;;;;;;19.86;90.86;101539.69;5091313;28;20427;-58
2022/08/01 03:54:00;;;;;;;24.90;17.80;;;;;;;19.84;90.87;101544.38;5092066;28;20032;-59
2022/08/01 03:56:27;;;;;;;24.02;18.60;;;;;;;19.83;91.58;101530.03;5094565;28;20094;-58
2022/08/01 03:58:54;;;;;;;22.33;17.42;;;;;;;19.80;91.01;101532.16;5092278;28;20127;-59
2022/08/01 04:01:19;;;;;;;25.35;18.38;;;;;;;19.77;91.64;101538.69;5093187;28;20032;-58
2022/08/01 04:03:45;;;;;;;22.77;17.13;;;;;;;19.72;91.17;101533.69;5093338;28;20096;-58
2022/08/01 04:06:13;;;;;;;23.45;17.80;;;;;;;19.78;90.78;101542.25;5091450;28;20016;-58
2022/08/01 04:08:40;;;;;;;23.58;17.52;;;;;;;19.74;91.00;101538.97;5094646;28;20020;-58
2022/08/01 04:11:08;;;;;;;22.50;18.17;;;;;;;19.77;91.14;101546.78;5092674;28;20077;-58
2022/08/01 04:13:33;;;;;;;21.55;16.42;;;;;;;19.77;90.67;101541.38;5094427;28;20020;-58
2022/08/01 04:15:59;;;;;;;23.73;16.67;;;;;;;19.77;89.68;101540.53;5091224;28;20104;-58
2022/08/01 04:18:30;;;;;;;25.60;17.17;;;;;;;19.74;90.37;101550.63;5092943;28;20419;-58
2022/08/01 04:20:56;;;;;;;23.00;17.40;;;;;;;19.78;90.64;101550.34;5094764;28;20394;-58
2022/08/01 04:23:25;;;;;;;25.08;16.77;;;;;;;19.80;91.07;101551.91;5091647;28;20036;-58
2022/08/01 04:25:52;;;;;;;24.80;17.40;;;;;;;19.69;90.58;101557.41;5091702;28;20032;-59
2022/08/01 04:28:19;;;;;;;22.98;16.52;;;;;;;19.73;90.39;101559.69;5093969;28;20020;-59
2022/08/01 04:30:48;;;;;;;24.42;17.17;;;;;;;19.68;90.27;101553.88;5091752;28;20020;-59
2022/08/01 04:33:16;;;;;;;;;;;;;;;19.84;89.02;101550.63;5092039;28;20359;-59
2022/08/01 04:35:45;;;;;;;21.63;15.82;;;;;;;19.65;89.97;101546.06;5092072;28;19995;-59
2022/08/01 04:38:16;;;;;;;21.20;16.75;;;;;;;19.67;89.42;101543.19;5091165;28;20504;-59
2022/08/01 04:40:47;;;;;;;23.23;16.85;;;;;;;19.65;90.14;101562.25;5090810;28;20020;-58
2022/08/01 04:43:13;;;;;;;23.80;17.38;;;;;;;19.60;90.38;101553.69;5092252;28;20073;-59
2022/08/01 04:45:40;;;;;;;23.02;17.02;;;;;;;19.65;89.81;101559.56;5092566;28;20429;-59
2022/08/01 04:48:06;;;;;;;23.33;17.27;;;;;;;19.52;89.80;101553.50;5088883;28;20078;-59
2022/08/01 04:50:32;;;;;;;23.58;17.60;;;;;;;19.64;90.83;101567.75;5092909;28;20022;-58
2022/08/01 04:53:02;;;;;;;25.42;17.67;;;;;;;19.68;89.87;101571.91;5092057;28;20019;-58
2022/08/01 04:55:28;;;;;;;23.67;17.98;;;;;;;19.70;89.73;101572.63;5090068;28;20513;-58
2022/08/01 04:57:54;;;;;;;25.92;17.40;;;;;;;19.77;89.71;101576.47;5090575;28;20032;-58
2022/08/01 05:00:20;;;;;;;29.42;18.40;;;;;;;19.69;89.90;101571.75;5093051;28;20078;-59
2022/08/01 05:02:47;;;;;;;26.52;17.40;;;;;;;19.63;89.62;101580.38;5091171;28;20482;-58
2022/08/01 05:05:13;;;;;;;22.70;16.83;;;;;;;19.63;90.17;101585.78;5090958;28;20024;-58
2022/08/01 05:07:38;;;;;;;24.13;17.35;;;;;;;19.64;89.81;101584.78;5090092;28;20117;-59
2022/08/01 05:10:05;;;;;;;22.30;15.65;;;;;;;19.66;90.20;101592.78;5090222;28;20039;-59
2022/08/01 05:12:31;;;;;;;23.42;17.08;;;;;;;19.68;90.05;101586.25;5092125;28;20023;-59
2022/08/01 05:14:58;;;;;;;25.10;17.17;;;;;;;19.66;89.73;101600.88;5090879;28;20036;-59
2022/08/01 05:17:23;;;;;;;20.83;15.60;;;;;;;19.73;88.68;101602.88;5093748;28;20019;-58
2022/08/01 05:19:48;;;;;;;20.40;14.68;;;;;;;19.77;88.23;101594.53;5090429;28;20035;-58
2022/08/01 05:22:14;;;;;;;22.67;15.50;;;;;;;19.64;87.96;101595.56;5072675;28;20506;-58
2022/08/01 05:24:40;;;;;;;21.88;13.95;;;;;;;19.68;87.76;101599.75;5088930;28;20487;-58
2022/08/01 05:27:07;;;;;;;20.75;13.32;;;;;;;19.60;87.50;101591.47;5089703;28;20030;-59
2022/08/01 05:29:33;;;;;;;16.02;12.68;;;;;;;19.64;87.84;101594.72;5091786;28;20020;-59
2022/08/01 05:31:59;;;;;;;18.05;13.10;;;;;;;19.69;88.01;101606.00;5091256;28;20020;-58
2022/08/01 05:34:25;;;;;;;17.10;11.93;;;;;;;19.64;88.54;101605.53;5073844;28;20115;-58
2022/08/01 05:36:51;;;;;;;16.20;11.15;;;;;;;19.66;87.32;101592.78;5090371;28;20444;-58
2022/08/01 05:39:16;;;;;;;13.65;11.27;;;;;;;19.78;87.39;101602.47;5089139;28;20337;-59
2022/08/01 05:41:42;;;;;;;16.27;10.07;;;;;;;19.71;86.80;101593.22;5090954;28;20081;-59
2022/08/01 05:44:08;;;;;;;14.32;10.13;;;;;;;19.75;87.22;101589.25;5088878;28;20016;-59
2022/08/01 05:46:34;;;;;;;13.93;9.80;;;;;;;19.78;86.62;101596.22;5108353;28;20058;-59
2022/08/01 05:49:00;;;;;;;11.27;9.38;;;;;;;19.74;86.50;101593.81;5090897;28;20454;-58
2022/08/01 05:51:29;;;;;;;11.63;9.45;;;;;;;19.79;86.83;101598.78;5090042;28;20391;-58
2022/08/01 05:53:54;;;;;;;12.23;8.93;;;;;;;19.74;86.91;101601.91;5091362;28;20100;-58
2022/08/01 05:56:21;;;;;;;12.57;9.20;;;;;;;19.83;86.28;101602.06;5090271;28;20035;-59
2022/08/01 05:58:52;;;;;;;10.90;9.20;;;;;;;19.86;86.54;101604.50;5091520;28;20032;-59
2022/08/01 06:01:20;;;;;;;12.40;9.00;;;;;;;19.79;86.14;101604.16;5089557;28;20475;-58
2022/08/01 06:03:46;;;;;;;14.27;9.05;;;;;;;19.83;87.05;101602.06;5089433;28;20113;-59
2022/08/01 06:06:13;;;;;;;14.13;9.60;;;;;;;19.89;86.88;101604.22;5090936;28;20033;-58
2022/08/01 06:08:39;;;;;;;13.00;8.30;;;;;;;19.86;86.29;101615.28;5089593;28;20197;-59
2022/08/01 06:11:05;;;;;;;12.45;9.18;;;;;;;19.87;86.43;101609.75;5088456;28;20028;-59
2022/08/01 06:13:32;;;;;;;15.15;10.10;;;;;;;19.81;86.52;101607.59;5089931;28;20033;-59
2022/08/01 06:15:57;;;;;;;13.00;8.88;;;;;;;19.91;86.53;101599.50;5089833;28;20036;-59
2022/08/01 06:18:23;;;;;;;14.43;8.93;;;;;;;19.95;85.58;101599.09;5091341;28;20034;-58
2022/08/01 06:20:48;;;;;;;13.20;9.10;;;;;;;20.03;86.55;101603.81;5088421;28;20064;-59
2022/08/01 06:23:15;;;;;;;10.45;8.73;;;;;;;20.13;86.17;101610.06;5089249;28;20035;-59
2022/08/01 06:25:41;;;;;;;11.68;7.95;;;;;;;20.16;84.72;101606.25;5090157;28;20145;-59
2022/08/01 06:28:07;;;;;;;11.18;7.68;;;;;;;20.19;85.09;101598.69;5091151;28;20016;-59
2022/08/01 06:30:33;;;;;;;9.65;7.57;;;;;;;20.23;84.14;101610.06;5072709;28;20050;-59
2022/08/01 06:32:59;;;;;;;11.27;7.85;;;;;;;20.26;84.56;101612.50;5090156;28;20483;-58
2022/08/01 06:35:26;;;;;;;9.02;7.60;;;;;;;20.20;83.64;101622.00;5089603;28;20517;-59
2022/08/01 06:37:54;;;;;;;10.00;8.00;;;;;;;20.07;84.26;101624.13;5090716;28;20433;-59
2022/08/01 06:40:20;;;;;;;10.52;7.70;;;;;;;20.04;85.96;101619.03;5089646;28;20020;-59
2022/08/01 06:42:46;;;;;;;13.02;7.97;;;;;;;20.02;84.38;101612.91;5090861;28;20317;-59
2022/08/01 06:45:13;;;;;;;11.85;7.60;;;;;;;20.04;84.38;101623.56;5072735;28;20459;-58
2022/08/01 06:47:42;;;;;;;11.65;7.75;;;;;;;20.02;85.23;101625.56;5089680;28;20971;-58
2022/08/01 06:50:09;;;;;;;9.50;7.72;;;;;;;20.07;85.40;101621.44;5090109;28;20028;-59
2022/08/01 06:52:35;;;;;;;15.90;8.25;;;;;;;20.14;85.75;101624.44;5089884;28;20020;-58
2022/08/01 06:55:04;;;;;;;10.43;7.80;;;;;;;20.13;84.18;101634.38;5071741;28;20055;-58
2022/08/01 06:57:29;;;;;;;13.40;7.40;;;;;;;20.24;84.56;101632.56;5090507;28;20028;-58
2022/08/01 06:59:55;;;;;;;9.60;7.75;;;;;;;20.17;84.67;101633.09;5087347;28;20090;-58
2022/08/01 07:02:23;;;;;;;7.10;6.35;;;;;;;20.05;84.54;101630.66;5084600;28;20051;-54
2022/08/01 07:04:49;;;;;;;7.28;5.90;;;;;;;20.13;84.62;101626.28;5089252;28;20048;-53
2022/08/01 07:07:17;;;;;;;5.68;4.63;;;;;;;20.09;83.53;101624.88;5089012;28;20165;-54
2022/08/01 07:09:43;;;;;;;6.35;4.90;;;;;;;20.13;84.52;101631.69;5085929;28;20059;-54
2022/08/01 07:12:09;;;;;;;6.50;5.00;;;;;;;20.25;83.18;101618.91;5089768;28;20020;-54
2022/08/01 07:14:35;;;;;;;7.00;4.85;;;;;;;20.59;82.53;101632.03;5091960;28;20171;-54
2022/08/01 07:17:00;;;;;;;6.60;4.43;;;;;;;20.66;81.13;101633.16;5089857;28;20459;-54
2022/08/01 07:19:28;;;;;;;6.00;4.57;;;;;;;20.61;81.53;101622.75;5091436;28;20050;-54
2022/08/01 07:21:56;;;;;;;7.50;5.03;;;;;;;20.68;81.71;101636.59;5092351;28;20023;-55
2022/08/01 07:24:22;;;;;;;5.87;4.10;;;;;;;20.93;80.16;101635.13;5075455;28;20472;-54
2022/08/01 07:26:48;;;;;;;6.40;3.95;;;;;;;20.96;78.84;101634.81;5093252;28;20300;-55
2022/08/01 07:29:14;;;;;;;5.15;3.85;;;;;;;21.06;80.30;101640.22;5093787;28;20115;-54
2022/08/01 07:31:41;;;;;;;6.30;3.42;;;;;;;21.00;77.94;101640.78;5088721;28;20106;-54
2022/08/01 07:34:06;;;;;;;5.88;3.58;;;;;;;21.04;77.74;101642.22;5091755;28;20490;-54
2022/08/01 07:36:31;;;;;;;7.07;3.58;;;;;;;21.13;78.13;101629.69;5093220;28;20028;-55
2022/08/01 07:38:57;;;;;;;3.08;2.88;;;;;;;21.25;76.49;101645.56;5095231;28;20024;-54
2022/08/01 07:41:25;;;;;;;3.13;2.70;;;;;;;21.30;76.76;101643.28;5091575;28;20494;-54
2022/08/01 07:43:50;;;;;;;2.28;2.00;;;;;;;21.21;76.05;101649.59;5074221;28;20040;-54
2022/08/01 07:46:18;;;;;;;3.80;2.20;;;;;;;21.20;76.65;101647.88;5103833;28;20455;-54
2022/08/01 07:48:43;;;;;;;2.63;2.28;;;;;;;21.35;76.07;101650.09;5091342;28;20027;-54
2022/08/01 07:51:10;;;;;;;2.55;2.25;;;;;;;21.51;75.72;101650.38;5092679;28;20032;-54
2022/08/01 07:53:36;;;;;;;3.05;1.98;;;;;;;21.74;74.44;101649.00;5091771;28;20020;-54
2022/08/01 07:56:04;;;;;;;1.88;1.70;;;;;;;21.87;74.14;101647.78;5091252;28;20456;-54
2022/08/01 07:58:30;;;;;;;2.40;1.60;;;;;;;22.02;72.89;101654.38;5092260;28;20067;-55
2022/08/01 08:00:58;;;;;;;1.80;1.70;;;;;;;21.98;71.56;101651.13;5074680;28;20069;-54
2022/08/01 08:03:23;;;;;;;2.50;1.95;;;;;;;21.98;70.94;101644.88;5100544;28;20082;-54
2022/08/01 08:05:49;;;;;;;2.88;1.95;;;;;;;22.09;71.28;101650.09;5089813;28;20067;-54
2022/08/01 08:08:15;;;;;;;5.78;1.65;;;;;;;22.31;72.53;101651.53;5089786;28;20071;-52
2022/08/01 08:10:41;;;;;;;2.78;1.65;;;;;;;22.41;71.44;101654.16;5088621;28;20028;-53
2022/08/01 08:13:06;;;;;;;2.78;1.90;;;;;;;22.41;69.64;101655.03;5093240;28;20027;-52
2022/08/01 08:15:32;;;;;;;2.83;1.98;;;;;;;22.34;69.74;101653.06;5089259;28;20391;-52
2022/08/01 08:17:59;;;;;;;2.85;1.70;;;;;;;22.48;70.93;101657.13;5090711;28;20035;-53
2022/08/01 08:20:26;;;;;;;2.60;1.95;;;;;;;22.52;69.10;101664.75;5103941;28;20081;-53
2022/08/01 08:22:55;;;;;;;3.60;1.73;;;;;;;22.69;69.17;101652.22;5073472;28;20032;-52
2022/08/01 08:25:24;;;;;;;2.22;2.03;;;;;;;22.96;67.99;101655.84;5091583;28;20031;-51
2022/08/01 08:27:52;;;;;;;2.50;1.95;;;;;;;23.30;67.57;101666.78;5090080;28;20040;-53
2022/08/01 08:30:18;;;;;;;2.83;1.67;;;;;;;23.21;67.67;101660.44;5092424;28;20032;-53
2022/08/01 08:32:44;;;;;;;2.35;1.60;;;;;;;22.98;66.08;101667.41;5091296;28;20028;-53
2022/08/01 08:35:10;;;;;;;2.17;1.50;;;;;;;22.68;65.99;101670.34;5095093;28;20033;-53
2022/08/01 08:37:36;;;;;;;1.33;1.20;;;;;;;22.58;66.17;101660.59;5092268;28;20382;-52
2022/08/01 08:40:04;;;;;;;1.80;1.42;;;;;;;22.73;67.58;101660.88;5091921;28;20024;-51
2022/08/01 08:42:29;;;;;;;1.55;1.45;;;;;;;23.00;66.08;101660.81;5091508;28;20028;-52
2022/08/01 08:44:55;;;;;;;1.67;1.35;;;;;;;23.27;64.83;101662.53;5092300;28;20394;-53
2022/08/01 08:47:22;;;;;;;1.92;1.60;;;;;;;23.52;63.66;101655.34;5088688;28;20032;-51
2022/08/01 08:49:51;;;;;;;1.10;1.00;;;;;;;23.70;62.06;101658.00;5091470;28;20407;-51
2022/08/01 08:52:21;;;;;;;1.33;1.20;;;;;;;23.63;62.75;101666.97;5089494;28;20016;-52
2022/08/01 08:54:49;;;;;;;1.73;1.20;;;;;;;23.62;63.59;101662.53;5092049;28;20322;-52
2022/08/01 08:57:14;;;;;;;1.88;1.20;;;;;;;23.52;62.85;101666.22;5091989;28;20020;-52
2022/08/01 08:59:40;;;;;;;2.75;1.30;;;;;;;23.39;63.68;101652.25;5091240;28;20038;-49
2022/08/01 09:02:09;;;;;;;2.78;1.48;;;;;;;23.52;61.96;101662.66;5093585;28;20039;-51
2022/08/01 09:04:35;;;;;;;1.38;1.05;;;;;;;23.76;62.64;101664.66;5090503;28;20027;-53
2022/08/01 09:07:03;;;;;;;2.28;1.20;;;;;;;23.87;61.63;101661.66;5091531;28;20024;-54
2022/08/01 09:09:32;;;;;;;1.30;1.17;;;;;;;23.74;61.99;101653.13;5091057;28;20051;-63
2022/08/01 09:11:57;;;;;;;2.40;1.13;;;;;;;23.82;62.50;101661.28;5088538;28;20036;-64
2022/08/01 09:14:26;;;;;;;1.48;1.20;;;;;;;23.57;62.53;101668.47;5074239;28;20036;-63
2022/08/01 09:17:07;;;;;;;1.38;1.10;;;;;;;23.40;63.78;101672.94;5092257;28;20028;-64
2022/08/01 09:19:51;;;;;;;1.20;1.10;;;;;;;23.16;64.00;101668.22;5090158;28;20016;-63
2022/08/01 09:22:22;;;;;;;1.45;1.10;;;;;;;23.32;63.05;101672.88;5090556;28;20091;-62
2022/08/01 09:25:08;;;;;;;2.00;1.20;;;;;;;23.44;63.30;101673.47;5092229;28;20083;-64
2022/08/01 09:27:35;;;;;;;2.08;1.00;;;;;;;23.51;62.62;101669.13;5089578;28;20502;-62
2022/08/01 09:30:09;;;;;;;1.45;1.20;;;;;;;23.67;62.34;101681.91;5091335;28;20020;-63
2022/08/01 09:32:35;;;;;;;1.70;1.40;;;;;;;23.68;61.16;101680.88;5094650;28;20149;-62
2022/08/01 09:35:23;;;;;;;1.42;1.25;;;;;;;23.64;61.79;101677.66;5104839;27;20024;-64
2022/08/01 09:37:48;;;;;;;2.55;1.50;;;;;;;23.66;61.42;101675.63;5091198;28;20031;-60
2022/08/01 09:40:13;;;;;;;1.77;1.20;;;;;;;23.58;60.41;101681.00;5091739;28;20036;-60
2022/08/01 09:42:41;;;;;;;1.70;1.27;;;;;;;23.68;60.88;101678.16;5072919;28;20547;-63
2022/08/01 09:45:08;;;;;;;1.23;1.13;;;;;;;23.87;60.58;101677.13;5092290;28;20059;-62
2022/08/01 09:47:40;;;;;;;1.00;0.90;;;;;;;23.87;59.48;101680.69;5092121;28;20036;-61
2022/08/01 09:50:08;;;;;;;1.10;0.98;;;;;;;24.01;58.29;101676.50;5091452;28;20028;-63
2022/08/01 09:52:34;;;;;;;1.77;0.93;;;;;;;24.17;59.04;101675.69;5073166;28;20056;-64
2022/08/01 09:55:03;;;;;;;1.02;0.93;;;;;;;24.07;57.89;101675.84;5089224;28;20046;-63
2022/08/01 09:57:28;;;;;;;;;;;;;;;24.17;59.82;101679.25;5093669;28;20379;-64
2022/08/01 09:59:56;;;;;;;3.55;1.20;;;;;;;24.07;59.17;101683.16;5089339;28;19912;-64
2022/08/01 10:02:32;;;;;;;1.02;1.00;;;;;;;23.98;59.44;101693.97;5089501;28;20039;-58
2022/08/01 10:04:57;;;;;;;1.55;1.20;;;;;;;23.88;60.19;101686.97;5092246;28;20099;-58
2022/08/01 10:07:23;;;;;;;5.60;1.23;;;;;;;23.74;60.75;101681.16;5092664;28;20118;-58
2022/08/01 10:09:48;;;;;;;1.38;1.00;;;;;;;23.87;60.58;101688.00;5090141;28;20467;-58
2022/08/01 10:12:20;;;;;;;1.65;1.23;;;;;;;23.98;60.43;101683.09;5089618;28;20031;-58
2022/08/01 10:14:49;;;;;;;1.23;1.00;;;;;;;24.21;59.05;101682.50;5090884;28;20020;-58
2022/08/01 10:17:20;;;;;;;1.80;1.10;;;;;;;24.31;58.35;101680.47;5089956;28;20031;-58
2022/08/01 10:19:49;;;;;;;2.00;1.30;;;;;;;24.35;58.77;101690.00;5092042;28;20023;-58
2022/08/01 10:22:17;;;;;;;1.38;1.13;;;;;;;24.43;58.88;101694.66;5091022;28;20433;-58
2022/08/01 10:24:46;;;;;;;1.02;0.95;;;;;;;24.52;59.36;101690.06;5091811;28;20027;-58
2022/08/01 10:27:15;;;;;;;1.63;1.10;;;;;;;24.63;57.32;101693.31;5088804;28;20042;-58
2022/08/01 10:29:42;;;;;;;1.35;1.00;;;;;;;24.52;57.50;101695.50;5090471;28;20024;-58
2022/08/01 10:32:09;;;;;;;2.15;1.38;;;;;;;24.32;59.56;101682.19;5089813;28;20020;-58
2022/08/01 10:34:36;;;;;;;2.38;1.70;;;;;;;24.17;60.41;101700.16;5072783;28;20016;-58
2022/08/01 10:37:03;;;;;;;2.10;1.60;;;;;;;24.11;60.50;101701.66;5094622;28;20383;-58
2022/08/01 10:39:30;;;;;;;3.90;1.80;;;;;;;24.07;60.77;101694.03;5090310;28;20020;-58
2022/08/01 10:41:57;;;;;;;2.65;1.67;;;;;;;24.16;61.71;101693.03;5090915;28;20039;-58
2022/08/01 10:44:27;;;;;;;4.35;1.90;;;;;;;24.18;61.53;101689.13;5092697;28;20028;-58
2022/08/01 10:47:07;;;;;;;2.22;1.80;;;;;;;24.36;61.00;101696.31;5090850;28;20413;-58
2022/08/01 10:49:40;;;;;;;1.50;1.40;;;;;;;24.46;60.69;101697.03;5090498;28;20028;-58
2022/08/01 10:52:06;;;;;;;2.90;1.58;;;;;;;24.39;59.85;101695.97;5090736;28;20036;-58
2022/08/01 10:54:38;;;;;;;3.45;1.70;;;;;;;24.17;60.39;101701.00;5071920;28;20024;-58
2022/08/01 10:57:05;;;;;;;3.03;1.63;;;;;;;24.01;60.00;101699.09;5094732;28;20056;-58
2022/08/01 10:59:31;;;;;;;1.27;1.17;;;;;;;24.06;60.00;101712.19;5093249;28;20487;-58
2022/08/01 11:02:00;;;;;;;2.75;1.70;;;;;;;24.16;60.91;101707.47;5093491;28;20072;-58
2022/08/01 11:04:50;;;;;;;4.13;1.40;;;;;;;24.20;61.29;101707.97;5097296;28;20107;-58
2022/08/01 11:07:20;;;;;;;4.80;1.60;;;;;;;24.25;62.75;101713.78;5094911;28;20123;-58
2022/08/01 11:09:49;;;;;;;1.70;1.02;;;;;;;24.25;61.63;101722.78;5095161;28;20048;-58
2022/08/01 11:12:39;;;;;;;2.95;1.20;;;;;;;24.01;60.99;101722.69;5072392;28;20083;-58
2022/08/01 11:15:05;;;;;;;1.30;1.20;;;;;;;23.90;61.46;101721.13;5055188;28;20139;-58
2022/08/01 11:17:32;;;;;;;1.60;1.30;;;;;;;23.76;62.06;101736.16;5072076;28;20123;-58
2022/08/01 11:20:12;;;;;;;2.00;1.40;;;;;;;23.54;62.60;101721.22;5054977;28;20484;-58
2022/08/01 11:23:04;;;;;;;1.50;1.23;;;;;;;23.60;62.07;101727.88;5086362;28;20495;-58